createdAt,value
2019-03-06T00:00:55.798Z,90.20
2019-03-06T00:03:26.619Z,90.50
2019-03-06T00:05:55.965Z,90.90
2019-03-06T00:08:25.334Z,90.70
2019-03-06T00:10:54.631Z,90.60
2019-03-06T00:13:24.036Z,90.90
2019-03-06T00:15:54.297Z,90.80
2019-03-06T00:18:23.637Z,90.60
2019-03-06T00:20:52.971Z,90.00
2019-03-06T00:23:22.269Z,90.10
2019-03-06T00:25:51.566Z,89.90
2019-03-06T00:28:20.885Z,89.90
2019-03-06T00:30:50.170Z,89.80
2019-03-06T00:33:19.492Z,89.80
2019-03-06T00:35:50.598Z,89.90
2019-03-06T00:38:20.186Z,89.70
2019-03-06T00:40:57.215Z,89.80
2019-03-06T00:43:26.518Z,89.70
2019-03-06T00:45:55.798Z,89.80
2019-03-06T00:48:25.120Z,89.60
2019-03-06T00:50:54.449Z,89.50
2019-03-06T00:53:23.747Z,89.30
2019-03-06T00:55:53.060Z,89.70
2019-03-06T00:58:22.410Z,89.90
2019-03-06T01:00:51.706Z,89.50
2019-03-06T01:03:21.080Z,89.70
2019-03-06T01:05:50.883Z,89.90
2019-03-06T01:08:20.347Z,89.90
2019-03-06T01:10:49.741Z,89.70
2019-03-06T01:13:19.311Z,89.80
2019-03-06T01:15:48.676Z,90.20
2019-03-06T01:18:18.042Z,90.10
2019-03-06T01:20:47.345Z,89.70
2019-03-06T01:23:16.641Z,89.60
2019-03-06T01:25:46.295Z,89.90
2019-03-06T01:28:15.591Z,90.10
2019-03-06T01:30:44.908Z,90.10
2019-03-06T01:33:28.171Z,90.10
2019-03-06T01:35:59.123Z,89.90
2019-03-06T01:38:35.639Z,90.10
2019-03-06T01:41:10.688Z,90.10
2019-03-06T01:43:44.343Z,90.20
2019-03-06T01:46:13.654Z,90.40
2019-03-06T01:48:42.952Z,90.60
2019-03-06T01:51:12.347Z,91.00
2019-03-06T01:54:00.999Z,91.10
2019-03-06T01:56:30.374Z,90.60
2019-03-06T01:58:59.683Z,90.60
2019-03-06T02:01:29.003Z,90.60
2019-03-06T02:03:58.282Z,90.40
2019-03-06T02:06:27.603Z,90.30
2019-03-06T02:08:56.908Z,90.80
2019-03-06T02:11:26.229Z,90.30
2019-03-06T02:13:55.539Z,90.60
2019-03-06T02:16:24.923Z,90.30
2019-03-06T02:18:54.213Z,90.90
2019-03-06T02:21:23.531Z,91.30
2019-03-06T02:23:52.809Z,91.40
2019-03-06T02:26:22.121Z,91.30
2019-03-06T02:28:51.801Z,91.20
2019-03-06T02:32:09.669Z,91.20
2019-03-06T02:34:38.963Z,90.80
2019-03-06T02:37:08.271Z,90.50
2019-03-06T02:39:37.668Z,90.60
2019-03-06T02:42:06.948Z,90.20
2019-03-06T02:44:36.248Z,90.40
2019-03-06T02:47:05.643Z,90.50
2019-03-06T02:49:34.948Z,90.40
2019-03-06T02:52:04.407Z,89.90
2019-03-06T02:54:33.703Z,89.90
2019-03-06T02:57:03.023Z,89.70
2019-03-06T02:59:33.972Z,89.90
2019-03-06T03:02:07.641Z,90.30
2019-03-06T03:04:39.660Z,90.10
2019-03-06T03:07:10.548Z,90.30
2019-03-06T03:09:40.023Z,90.20
2019-03-06T03:12:11.146Z,90.00
2019-03-06T03:14:40.455Z,90.00
2019-03-06T03:17:09.935Z,89.80
2019-03-06T03:19:39.233Z,90.20
2019-03-06T03:22:08.556Z,90.20
2019-03-06T03:24:37.873Z,90.00
2019-03-06T03:27:07.162Z,89.70
2019-03-06T03:29:36.452Z,89.80
2019-03-06T03:32:05.740Z,89.80
2019-03-06T03:34:35.373Z,89.60
2019-03-06T03:37:04.699Z,89.50
2019-03-06T03:39:34.011Z,89.40
2019-03-06T03:42:03.356Z,89.40
2019-03-06T03:44:32.682Z,89.40
2019-03-06T03:47:02.369Z,89.60
2019-03-06T03:49:31.696Z,89.60
2019-03-06T03:52:00.983Z,90.10
2019-03-06T03:54:30.303Z,89.80
2019-03-06T03:56:59.612Z,89.50
2019-03-06T03:59:30.333Z,89.60
2019-03-06T04:01:59.706Z,89.50
2019-03-06T04:04:29.017Z,90.50
2019-03-06T04:06:58.319Z,90.00
2019-03-06T04:09:28.592Z,90.20
2019-03-06T04:11:58.257Z,89.80
2019-03-06T04:14:27.563Z,90.00
2019-03-06T04:16:56.869Z,90.20
2019-03-06T04:19:26.164Z,90.00
2019-03-06T04:21:55.470Z,90.30
2019-03-06T04:24:25.171Z,90.00
2019-03-06T04:26:54.475Z,90.20
2019-03-06T04:29:23.852Z,90.50
2019-03-06T04:31:53.155Z,90.30
2019-03-06T04:34:22.474Z,90.20
2019-03-06T04:36:52.166Z,90.40
2019-03-06T04:39:21.483Z,90.30
2019-03-06T04:41:50.779Z,90.30
2019-03-06T04:44:20.107Z,90.10
2019-03-06T04:46:49.409Z,90.20
2019-03-06T04:49:18.987Z,90.20
2019-03-06T04:51:48.297Z,91.00
2019-03-06T04:54:17.598Z,90.70
2019-03-06T04:56:46.931Z,90.60
2019-03-06T04:59:16.308Z,90.90
2019-03-06T05:01:45.899Z,90.60
2019-03-06T05:04:15.198Z,90.10
2019-03-06T05:06:44.524Z,90.10
2019-03-06T05:09:13.826Z,89.70
2019-03-06T05:11:43.154Z,90.00
2019-03-06T05:14:12.730Z,90.00
2019-03-06T05:16:49.427Z,90.00
2019-03-06T05:19:18.765Z,90.10
2019-03-06T05:21:48.116Z,90.00
2019-03-06T05:24:17.507Z,90.00
2019-03-06T05:26:46.835Z,90.10
2019-03-06T05:29:16.143Z,90.20
2019-03-06T05:32:22.074Z,90.00
2019-03-06T05:34:51.376Z,90.00
2019-03-06T05:37:38.446Z,90.20
2019-03-06T05:40:08.035Z,90.30
2019-03-06T05:42:37.480Z,90.10
2019-03-06T05:45:07.832Z,90.20
2019-03-06T05:47:37.134Z,90.00
2019-03-06T05:50:08.189Z,90.10
2019-03-06T05:52:37.617Z,89.90
2019-03-06T05:55:08.619Z,89.70
2019-03-06T05:57:37.967Z,90.10
2019-03-06T06:00:18.862Z,90.00
2019-03-06T06:02:48.350Z,90.20
2019-03-06T06:05:17.679Z,90.10
2019-03-06T06:07:47.002Z,90.30
2019-03-06T06:10:16.647Z,90.30
2019-03-06T06:12:45.967Z,90.40
2019-03-06T06:15:16.098Z,90.30
2019-03-06T06:17:45.398Z,90.00
2019-03-06T06:20:17.389Z,89.90
2019-03-06T06:23:00.231Z,90.00
2019-03-06T06:25:31.169Z,90.00
2019-03-06T06:28:00.483Z,90.30
2019-03-06T06:30:29.838Z,90.60
2019-03-06T06:32:59.228Z,90.90
2019-03-06T06:35:28.650Z,91.00
2019-03-06T06:37:58.037Z,90.60
2019-03-06T06:40:27.391Z,90.40
2019-03-06T06:42:56.705Z,90.00
2019-03-06T06:45:26.001Z,89.90
2019-03-06T06:48:12.868Z,90.10
2019-03-06T06:50:47.971Z,90.40
2019-03-06T06:53:32.038Z,90.50
2019-03-06T06:56:30.008Z,90.20
2019-03-06T06:59:20.566Z,90.70
2019-03-06T07:02:03.163Z,91.20
2019-03-06T07:05:02.373Z,91.30
2019-03-06T07:07:33.323Z,91.10
2019-03-06T07:10:08.914Z,91.10
2019-03-06T07:12:57.930Z,91.40
2019-03-06T07:15:34.447Z,92.40
2019-03-06T07:18:05.479Z,93.50
2019-03-06T07:20:36.433Z,93.60
2019-03-06T07:23:10.515Z,93.10
2019-03-06T07:25:44.406Z,92.70
2019-03-06T07:28:18.036Z,92.90
2019-03-06T07:30:49.961Z,92.70
2019-03-06T07:33:37.486Z,92.50
2019-03-06T07:36:08.509Z,93.20
2019-03-06T07:38:37.838Z,93.40
2019-03-06T07:41:23.823Z,93.10
2019-03-06T07:44:11.166Z,92.50
2019-03-06T07:46:42.126Z,92.40
2019-03-06T07:49:15.846Z,92.40
2019-03-06T07:52:06.228Z,92.60
2019-03-06T07:54:37.193Z,92.20
2019-03-06T07:57:08.127Z,91.70
2019-03-06T07:59:37.439Z,92.00
2019-03-06T08:02:30.973Z,91.30
2019-03-06T08:05:00.462Z,90.70
2019-03-06T08:07:29.765Z,90.60
2019-03-06T08:09:59.078Z,90.60
2019-03-06T08:12:35.998Z,90.90
2019-03-06T08:15:25.258Z,90.60
2019-03-06T08:17:59.065Z,90.10
2019-03-06T08:20:30.344Z,90.30
2019-03-06T08:23:10.376Z,90.10
2019-03-06T08:25:46.760Z,89.80
2019-03-06T08:28:16.080Z,89.20
2019-03-06T08:31:03.019Z,88.90
2019-03-06T08:33:32.558Z,88.90
2019-03-06T08:36:01.872Z,89.10
2019-03-06T08:38:31.170Z,88.90
2019-03-06T08:41:04.396Z,88.40
2019-03-06T08:43:31.583Z,89.20
2019-03-06T08:46:05.190Z,88.90
2019-03-06T08:48:41.870Z,89.40
2019-03-06T08:51:15.759Z,89.60
2019-03-06T08:53:47.208Z,89.40
2019-03-06T08:56:33.099Z,89.90
2019-03-06T08:59:22.275Z,89.50
2019-03-06T09:02:00.637Z,88.80
2019-03-06T09:04:29.222Z,87.80
2019-03-06T09:07:00.179Z,87.20
2019-03-06T09:09:43.462Z,86.50
2019-03-06T09:12:21.335Z,85.80
2019-03-06T09:14:55.041Z,85.50
2019-03-06T09:17:31.774Z,85.10
2019-03-06T09:20:05.626Z,83.30
2019-03-06T09:22:36.586Z,84.00
2019-03-06T09:25:09.163Z,83.30
2019-03-06T09:27:40.134Z,82.10
2019-03-06T09:30:24.167Z,82.20
2019-03-06T09:32:55.115Z,81.20
2019-03-06T09:35:35.010Z,81.00
2019-03-06T09:38:22.592Z,81.00
2019-03-06T09:41:10.094Z,80.90
2019-03-06T09:43:46.950Z,79.60
2019-03-06T09:46:26.847Z,81.50
2019-03-06T09:48:57.962Z,81.00
2019-03-06T09:51:28.923Z,77.80
2019-03-06T09:53:59.867Z,78.10
2019-03-06T09:56:36.853Z,77.00
2019-03-06T09:59:13.702Z,77.90
2019-03-06T10:01:44.667Z,76.40
2019-03-06T10:04:18.298Z,74.20
2019-03-06T10:06:51.939Z,75.10
2019-03-06T10:09:22.878Z,73.40
2019-03-06T10:12:05.985Z,73.30
2019-03-06T10:14:39.626Z,73.50
2019-03-06T10:17:11.570Z,68.60
2019-03-06T10:19:48.405Z,69.40
2019-03-06T10:22:17.711Z,69.50
2019-03-06T10:24:47.007Z,69.40
2019-03-06T10:29:45.203Z,62.60
2019-03-06T10:32:33.869Z,58.60
2019-03-06T10:35:03.438Z,57.10
2019-03-06T10:37:32.895Z,57.40
2019-03-06T10:40:02.643Z,54.30
2019-03-06T11:02:24.927Z,50.00
2019-03-06T11:04:58.879Z,51.70
2019-03-06T11:07:28.273Z,52.40
2019-03-06T11:09:57.806Z,52.20
2019-03-06T11:12:27.264Z,54.40
2019-03-06T11:14:56.718Z,54.20
2019-03-06T11:17:26.114Z,53.40
2019-03-06T11:19:55.799Z,55.10
2019-03-06T11:22:31.986Z,54.90
2019-03-06T11:25:01.270Z,55.50
2019-03-06T11:27:30.655Z,57.00
2019-03-06T11:29:59.964Z,56.40
2019-03-06T11:32:29.666Z,56.80
2019-03-06T11:34:59.047Z,53.10
2019-03-06T11:37:28.359Z,53.10
2019-03-06T11:40:09.335Z,52.60
2019-03-06T11:45:10.697Z,49.30
2019-03-06T11:47:40.011Z,48.60
2019-03-06T11:50:11.259Z,48.40
2019-03-06T11:52:40.616Z,47.80
2019-03-06T12:02:44.775Z,49.30
2019-03-06T12:12:41.285Z,49.60
2019-03-06T12:17:39.550Z,48.50
2019-03-06T12:20:09.898Z,48.30
2019-03-06T12:22:39.266Z,49.00
2019-03-06T12:25:11.016Z,48.70
2019-03-06T12:27:40.516Z,49.10
2019-03-06T12:30:16.110Z,50.20
2019-03-06T12:32:45.678Z,52.70
2019-03-06T12:35:17.376Z,52.90
2019-03-06T12:37:47.321Z,53.60
2019-03-06T12:40:19.855Z,53.30
2019-03-06T12:42:49.198Z,54.60
2019-03-06T12:45:19.890Z,55.20
2019-03-06T12:47:55.305Z,54.90
2019-03-06T12:50:32.412Z,54.80
2019-03-06T12:53:01.961Z,55.00
2019-03-06T12:55:31.343Z,54.80
2019-03-06T12:58:00.710Z,54.60
2019-03-06T13:00:30.078Z,54.40
2019-03-06T13:02:59.369Z,54.20
2019-03-06T13:05:28.915Z,55.90
2019-03-06T13:07:58.206Z,55.40
2019-03-06T13:10:28.570Z,55.80
2019-03-06T13:12:58.054Z,55.90
2019-03-06T13:15:27.958Z,55.60
2019-03-06T13:17:57.362Z,56.40
2019-03-06T13:20:26.743Z,57.20
2019-03-06T13:22:56.045Z,57.10
2019-03-06T13:25:25.624Z,56.80
2019-03-06T13:27:55.456Z,56.70
2019-03-06T13:30:27.682Z,56.30
2019-03-06T13:33:14.844Z,56.40
2019-03-06T13:35:44.156Z,56.80
2019-03-06T13:38:13.510Z,56.90
2019-03-06T13:40:43.109Z,58.10
2019-03-06T13:43:12.411Z,58.00
2019-03-06T13:45:42.203Z,58.30
2019-03-06T13:48:11.560Z,58.30
2019-03-06T13:50:40.866Z,57.60
2019-03-06T13:53:10.180Z,57.60
2019-03-06T13:55:39.757Z,58.40
2019-03-06T13:58:09.242Z,58.80
2019-03-06T14:00:38.947Z,58.60
2019-03-06T14:03:08.336Z,57.70
2019-03-06T14:05:37.699Z,57.80
2019-03-06T14:08:07.355Z,57.60
2019-03-06T14:10:56.329Z,57.30
2019-03-06T14:13:25.650Z,56.40
2019-03-06T14:15:55.042Z,54.60
2019-03-06T14:18:24.358Z,53.40
2019-03-06T14:20:53.930Z,54.00
2019-03-06T14:23:23.979Z,55.30
2019-03-06T14:25:53.350Z,56.10
2019-03-06T14:28:22.706Z,56.60
2019-03-06T14:30:52.079Z,57.10
2019-03-06T14:33:24.074Z,55.90
2019-03-06T14:35:53.383Z,55.60
2019-03-06T14:38:23.167Z,54.60
2019-03-06T14:40:53.055Z,54.70
2019-03-06T14:43:22.481Z,54.00
2019-03-06T14:45:51.794Z,54.70
2019-03-06T14:48:21.275Z,55.10
2019-03-06T14:50:50.558Z,55.60
2019-03-06T14:53:19.905Z,55.10
2019-03-06T14:55:49.237Z,56.10
2019-03-06T14:58:18.540Z,56.10
2019-03-06T15:00:48.097Z,56.40
2019-03-06T15:03:17.915Z,56.20
2019-03-06T15:05:47.562Z,56.40
2019-03-06T15:08:16.979Z,55.50
2019-03-06T15:10:46.350Z,56.50
2019-03-06T15:13:16.018Z,56.20
2019-03-06T15:15:45.475Z,56.40
2019-03-06T15:18:15.202Z,56.90
2019-03-06T15:20:44.864Z,58.40
2019-03-06T15:23:14.182Z,57.90
2019-03-06T15:25:43.711Z,56.90
2019-03-06T15:28:13.276Z,56.70
2019-03-06T15:30:42.581Z,57.50
2019-03-06T15:33:11.882Z,57.60
2019-03-06T15:35:41.276Z,57.50
2019-03-06T15:38:10.818Z,57.40
2019-03-06T15:40:40.602Z,57.70
2019-03-06T15:43:13.309Z,58.50
2019-03-06T15:45:42.865Z,58.60
2019-03-06T15:48:12.314Z,58.80
2019-03-06T15:50:41.639Z,59.30
2019-03-06T15:53:14.170Z,59.90
2019-03-06T15:55:43.631Z,60.60
2019-03-06T15:58:13.386Z,60.70
2019-03-06T16:00:46.205Z,61.20
2019-03-06T16:03:14.253Z,60.30
2019-03-06T16:05:44.166Z,62.00
2019-03-06T16:08:14.139Z,63.60
2019-03-06T16:10:43.700Z,61.90
2019-03-06T16:13:13.072Z,61.70
2019-03-06T16:15:42.392Z,62.60
2019-03-06T16:18:12.821Z,62.10
2019-03-06T16:20:42.320Z,62.50
2019-03-06T16:23:11.750Z,63.50
2019-03-06T16:25:41.353Z,64.10
2019-03-06T16:28:10.820Z,64.30
2019-03-06T16:30:40.294Z,64.40
2019-03-06T16:33:09.736Z,64.20
2019-03-06T16:35:40.393Z,64.60
2019-03-06T16:38:09.687Z,64.80
2019-03-06T16:40:39.046Z,65.50
2019-03-06T16:43:08.355Z,65.50
2019-03-06T16:45:39.471Z,65.70
2019-03-06T16:48:08.861Z,65.20
2019-03-06T16:50:38.378Z,65.20
2019-03-06T16:53:07.954Z,65.60
2019-03-06T16:55:37.511Z,66.20
2019-03-06T16:58:06.882Z,65.90
2019-03-06T17:00:37.292Z,67.00
2019-03-06T17:03:08.922Z,67.50
2019-03-06T17:05:38.470Z,68.30
2019-03-06T17:08:08.315Z,68.90
2019-03-06T17:10:39.022Z,68.50
2019-03-06T17:13:08.763Z,69.30
2019-03-06T17:15:38.158Z,69.90
2019-03-06T17:18:07.591Z,70.10
2019-03-06T17:20:37.473Z,70.10
2019-03-06T17:23:06.998Z,70.30
2019-03-06T17:25:36.388Z,70.80
2019-03-06T17:28:06.174Z,71.20
2019-03-06T17:30:37.191Z,71.10
2019-03-06T17:33:08.780Z,71.80
2019-03-06T17:35:38.891Z,71.90
2019-03-06T17:38:10.618Z,72.20
2019-03-06T17:40:40.179Z,72.40
2019-03-06T17:43:10.188Z,72.80
2019-03-06T17:45:39.647Z,72.90
2019-03-06T17:48:10.170Z,72.30
2019-03-06T17:50:39.692Z,72.60
2019-03-06T17:53:09.230Z,73.90
2019-03-06T17:55:38.675Z,73.90
2019-03-06T17:58:08.138Z,74.10
2019-03-06T18:00:54.878Z,74.40
2019-03-06T18:03:27.167Z,74.30
2019-03-06T18:05:56.524Z,74.50
2019-03-06T18:08:26.750Z,74.70
2019-03-06T18:10:56.345Z,74.60
2019-03-06T18:13:25.723Z,74.10
2019-03-06T18:15:55.035Z,74.40
2019-03-06T18:18:24.334Z,74.10
2019-03-06T18:20:53.645Z,74.40
2019-03-06T18:23:22.941Z,74.70
2019-03-06T18:25:52.501Z,74.60
2019-03-06T18:28:21.908Z,74.40
2019-03-06T18:30:51.294Z,74.40
2019-03-06T18:33:20.783Z,74.90
2019-03-06T18:35:50.134Z,75.30
2019-03-06T18:38:19.442Z,75.30
2019-03-06T18:40:49.030Z,75.40
2019-03-06T18:43:30.756Z,75.00
2019-03-06T18:46:00.183Z,75.10
2019-03-06T18:48:29.566Z,75.30
2019-03-06T18:50:59.938Z,75.00
2019-03-06T18:53:29.255Z,75.10
2019-03-06T18:55:58.596Z,74.70
2019-03-06T18:58:27.910Z,74.60
2019-03-06T19:00:57.211Z,74.90
2019-03-06T19:03:26.541Z,75.00
2019-03-06T19:05:55.851Z,74.80
2019-03-06T19:08:31.241Z,75.30
2019-03-06T19:10:56.206Z,74.80
2019-03-06T19:13:25.619Z,74.80
2019-03-06T19:15:54.999Z,74.90
2019-03-06T19:18:24.384Z,75.30
2019-03-06T19:20:54.065Z,75.20
2019-03-06T19:23:23.602Z,75.30
2019-03-06T19:25:53.052Z,75.50
2019-03-06T19:28:22.370Z,75.60
2019-03-06T19:30:57.598Z,75.90
2019-03-06T19:33:27.099Z,75.90
2019-03-06T19:35:56.491Z,76.10
2019-03-06T19:38:25.807Z,76.40
2019-03-06T19:40:55.352Z,76.70
2019-03-06T19:43:24.679Z,76.50
2019-03-06T19:45:54.042Z,76.90
2019-03-06T19:48:23.542Z,76.80
2019-03-06T19:50:52.846Z,77.60
2019-03-06T19:53:22.174Z,77.70
2019-03-06T19:55:51.483Z,77.60
2019-03-06T19:58:20.796Z,77.50
2019-03-06T20:00:50.218Z,77.30
2019-03-06T20:03:21.710Z,77.30
2019-03-06T20:05:51.215Z,76.90
2019-03-06T20:08:20.543Z,76.90
2019-03-06T20:10:49.901Z,77.10
2019-03-06T20:13:19.365Z,77.20
2019-03-06T20:15:54.834Z,76.70
2019-03-06T20:18:24.432Z,77.10
2019-03-06T20:20:53.879Z,77.70
2019-03-06T20:23:23.338Z,77.60
2019-03-06T20:25:52.884Z,77.60
2019-03-06T20:28:22.323Z,77.20
2019-03-06T20:30:51.666Z,77.20
2019-03-06T20:33:21.367Z,77.30
2019-03-06T20:35:50.754Z,77.30
2019-03-06T20:38:20.151Z,76.90
2019-03-06T20:40:49.595Z,77.00
2019-03-06T20:43:18.986Z,77.20
2019-03-06T20:45:48.300Z,77.50
2019-03-06T20:48:18.162Z,77.40
2019-03-06T20:50:47.479Z,77.30
2019-03-06T20:53:16.868Z,76.70
2019-03-06T20:55:46.269Z,76.50
2019-03-06T20:58:15.719Z,76.90
2019-03-06T21:00:45.116Z,77.10
2019-03-06T21:03:15.559Z,77.20
2019-03-06T21:05:44.965Z,78.20
2019-03-06T21:08:14.561Z,77.00
2019-03-06T21:10:43.975Z,76.80
2019-03-06T21:13:13.486Z,77.30
2019-03-06T21:15:42.916Z,78.30
2019-03-06T21:18:12.285Z,78.50
2019-03-06T21:20:41.719Z,78.30
2019-03-06T21:23:11.111Z,78.00
2019-03-06T21:25:40.521Z,78.00
2019-03-06T21:28:09.814Z,79.50
2019-03-06T21:30:43.474Z,80.10
2019-03-06T21:33:12.779Z,79.80
2019-03-06T21:35:44.164Z,80.20
2019-03-06T21:38:13.219Z,79.70
2019-03-06T21:40:42.683Z,79.80
2019-03-06T21:43:11.996Z,80.00
2019-03-06T21:45:41.372Z,79.60
2019-03-06T21:48:10.690Z,79.00
2019-03-06T21:50:40.054Z,78.70
2019-03-06T21:53:09.740Z,78.30
2019-03-06T21:55:39.123Z,78.80
2019-03-06T21:58:09.661Z,78.50
2019-03-06T22:00:40.035Z,78.50
2019-03-06T22:03:09.459Z,78.50
2019-03-06T22:05:38.931Z,80.20
2019-03-06T22:08:08.409Z,79.60
2019-03-06T22:10:37.798Z,79.20
2019-03-06T22:13:07.118Z,79.40
2019-03-06T22:15:36.539Z,79.20
2019-03-06T22:18:05.962Z,79.60
2019-03-06T22:20:35.311Z,79.40
2019-03-06T22:23:04.610Z,79.30
2019-03-06T22:25:33.930Z,79.30
2019-03-06T22:28:03.636Z,79.60
2019-03-06T22:30:33.058Z,79.50
2019-03-06T22:33:02.638Z,79.70
2019-03-06T22:35:31.938Z,80.30
2019-03-06T22:38:01.627Z,80.60
2019-03-06T22:40:30.927Z,80.80
2019-03-06T22:43:00.269Z,80.80
2019-03-06T22:45:29.694Z,80.70
2019-03-06T22:47:59.015Z,80.60
2019-03-06T22:50:28.385Z,80.80
2019-03-06T22:52:57.706Z,80.60
2019-03-06T22:55:27.021Z,81.20
2019-03-06T22:57:56.356Z,81.10
2019-03-06T23:00:33.371Z,81.10
2019-03-06T23:03:05.620Z,81.00
2019-03-06T23:05:38.146Z,81.30
2019-03-06T23:08:07.467Z,81.40
2019-03-06T23:10:37.721Z,82.00
2019-03-06T23:13:20.286Z,82.00
2019-03-06T23:15:49.585Z,81.40
2019-03-06T23:18:18.908Z,81.00
2019-03-06T23:20:48.213Z,81.70
2019-03-06T23:23:17.530Z,82.30
2019-03-06T23:25:46.822Z,82.20
2019-03-06T23:28:16.319Z,82.10
2019-03-06T23:30:45.623Z,82.20
2019-03-06T23:33:15.923Z,82.00
2019-03-06T23:35:45.218Z,81.70
2019-03-06T23:38:14.540Z,81.80
2019-03-06T23:40:43.864Z,81.80
2019-03-06T23:43:13.247Z,81.70
2019-03-06T23:45:42.575Z,82.10
2019-03-06T23:48:11.970Z,81.80
2019-03-06T23:50:41.259Z,81.80
2019-03-06T23:53:11.739Z,81.70
2019-03-06T23:55:41.326Z,81.60
2019-03-06T23:58:10.658Z,81.60
